High gust

Not for real navigation. The accuracy of this data is not assured See disclaimer for more information



ICAO NAME COUNTRY WIND Kt GUST Kt VIS m TEMP/DEW C BARO METAR
BGKK Kulusuk Lufthavn Greenland 29 46 9000 7/4 29.26 BGKK 221950Z AUTO 09029G46KT 9000NDV -RA BKN022/// 07/04 Q0991
CYAY Saint Anthony Airport Canada 34 43 14400 16/3 29.50 CYAY 222012Z AUTO 23034G43KT 9SM SCT250 16/03 A2950 RMK PRESFR SLP992 DENSITY ALT 600FT
CWXI Ferolle Point Meteorological A Canada 34 42 9999 11/8 29.92 CWXI 222000Z AUTO 22034G42KT 11/08 RMK AO1 PK WND 22043/1944 SLP997 T01070082 58038
RJOH Miho Ab Japan 27 39 9999 28/20 29.35 RJOH 222000Z 20027G39KT 9999 FEW030 BKN050 BKN/// 28/20 Q0994
RJBB Kansai International Airport Japan 24 37 9999 27/24 29.62 RJBB 222009Z AUTO 19024G37KT 9999 BKN025 OVC048 //////TCU 27/24 Q1003 RMK A2964 TCU 35KM SE MOV UNKN

Show more